Погода Чамовона неделю

Смоленская область, Россия

24 - 30 мая
  • 24мая
    Сегодня
    +6°
    +21°
    Ясно и безоблачно
    ВремяПогодаТемператураВлажностьДавлениеВетер, м/сВероятность осадков
    00:00Ясно и безоблачно+12°C52 %751 мм3.5 м/с2 %
    03:00Ясно и безоблачно+9°C62 %752 мм3.1 м/с2 %
    06:00Ясно и безоблачно+9°C60 %753 мм3.1 м/с2 %
    09:00Практически безоблачно+16°C43 %754 мм3.9 м/с2 %
    12:00Ясно и безоблачно+19°C30 %754 мм5.4 м/с2 %
    15:00Ясно и безоблачно+21°C29 %753 мм4.9 м/с2 %
    18:00Ясно и безоблачно+20°C32 %753 мм4.2 м/с2 %
    21:00Ясно и безоблачно+15°C47 %753 мм2.6 м/с2 %
  • 25мая
    Суббота
    +10°
    +24°
    Ясно и безоблачно
    ВремяПогодаТемператураВлажностьДавлениеВетер, м/сВероятность осадков
    00:00Ясно и безоблачно+10°C59 %753 мм2.5 м/с2 %
    03:00Ясно и безоблачно+7°C66 %752 мм2.5 м/с2 %
    06:00Ясно и безоблачно+8°C67 %752 мм2.8 м/с2 %
    09:00Ясно и безоблачно+16°C49 %753 мм1.9 м/с2 %
    12:00Ясно и безоблачно+21°C38 %752 мм2.1 м/с2 %
    15:00Ясно и безоблачно+23°C34 %751 мм2.8 м/с2 %
    18:00Ясно и безоблачно+23°C35 %750 мм2.3 м/с2 %
    21:00Ясно и безоблачно+17°C62 %749 мм2.2 м/с2 %
  • 26мая
    Воскресенье
    +12°
    +25°
    Облачно с прояснениями
    ВремяПогодаТемператураВлажностьДавлениеВетер, м/сВероятность осадков
    00:00Ясно и безоблачно+11°C75 %749 мм2.4 м/с2 %
    03:00Ясно и безоблачно+10°C71 %749 мм2.6 м/с2 %
    06:00Ясно и безоблачно+12°C73 %749 мм2.6 м/с2 %
    09:00Ясно и безоблачно+19°C55 %749 мм1.5 м/с2 %
    12:00Ясно и безоблачно+24°C37 %749 мм1.9 м/с2 %
    15:00Облачно с прояснениями+25°C35 %749 мм2.1 м/с2 %
    18:00Практически безоблачно+24°C35 %748 мм1.8 м/с5 %
    21:00Ясно и безоблачно+20°C53 %748 мм3.7 м/с2 %
  • 27мая
    Понедельник
    +11°
    +24°
    Практически безоблачно
    ВремяПогодаТемператураВлажностьДавлениеВетер, м/сВероятность осадков
    00:00Ясно и безоблачно+15°C76 %749 мм2.3 м/с2 %
    03:00Ясно и безоблачно+13°C93 %749 мм2.2 м/с2 %
    06:00Ясно и безоблачно+13°C91 %750 мм2.8 м/с2 %
    09:00Ясно и безоблачно+20°C68 %750 мм2.7 м/с2 %
    12:00Небольшая облачность и лёгкий дождик+22°C51 %750 мм2.6 м/с19 %
    15:00Практически безоблачно+23°C45 %749 мм2.6 м/с36 %
    18:00Ясно и безоблачно+23°C45 %749 мм2.6 м/с30 %
    21:00Ясно и безоблачно+19°C62 %749 мм2.8 м/с7 %
  • 28мая
    Вторник
    +9°
    +25°
    Облачно с прояснениями
    ВремяПогодаТемператураВлажностьДавлениеВетер, м/сВероятность осадков
    00:00Ясно и безоблачно+14°C80 %749 мм2.0 м/с2 %
    03:00Ясно и безоблачно+12°C87 %749 мм2.3 м/с2 %
    06:00Ясно и безоблачно+12°C75 %749 мм2.5 м/с2 %
    09:00Ясно и безоблачно+20°C55 %749 мм2.2 м/с2 %
    12:00Практически безоблачно+24°C42 %749 мм3.1 м/с11 %
    15:00Облачно с прояснениями+25°C36 %748 мм2.5 м/с16 %
    18:00Практически безоблачно+24°C37 %747 мм2.6 м/с20 %
    21:00Ясно и безоблачно+19°C52 %747 мм2.2 м/с7 %
Мы используем cookies
Соглашаюсь